createdAt,value
2018-04-22T04:00:42.289Z,35.43
2018-04-22T04:03:08.475Z,37.50
2018-04-22T04:05:34.637Z,35.33
2018-04-22T04:08:00.820Z,37.47
2018-04-22T04:10:26.994Z,39.10
2018-04-22T04:12:53.193Z,34.80
2018-04-22T04:15:19.390Z,36.80
2018-04-22T04:31:26.908Z,34.00
2018-04-22T04:33:53.138Z,37.53
2018-04-22T04:36:19.289Z,36.60
2018-04-22T04:38:45.450Z,34.80
2018-04-22T04:41:12.394Z,35.40
2018-04-22T04:43:39.309Z,38.07
2018-04-22T04:46:05.502Z,34.43
2018-04-22T04:48:31.681Z,35.60
2018-04-22T04:50:57.851Z,36.67
2018-04-22T04:53:24.013Z,37.93
2018-04-22T04:55:50.189Z,37.90
2018-04-22T04:58:16.367Z,36.60
2018-04-22T05:00:43.295Z,37.27
2018-04-22T05:03:09.474Z,36.13
2018-04-22T05:05:35.653Z,36.50
2018-04-22T05:08:01.837Z,35.17
2018-04-22T05:10:28.786Z,35.97
2018-04-22T05:12:55.693Z,36.57
2018-04-22T05:15:21.902Z,34.87
2018-04-22T05:17:48.066Z,34.70
2018-04-22T05:20:14.236Z,35.43
2018-04-22T05:22:40.413Z,37.87
2018-04-22T05:25:06.599Z,36.60
2018-04-22T05:27:33.386Z,36.67
2018-04-22T05:29:59.562Z,34.50
2018-04-22T05:32:25.746Z,35.47
2018-04-22T05:34:51.914Z,35.30
2018-04-22T05:37:18.109Z,34.00
2018-04-22T05:39:44.285Z,39.20
2018-04-22T05:42:10.451Z,36.47
2018-04-22T05:44:36.626Z,36.93
2018-04-22T05:47:02.800Z,37.60
2018-04-22T05:49:28.962Z,35.93
2018-04-22T05:51:55.874Z,37.10
2018-04-22T05:54:22.041Z,36.50
2018-04-22T05:56:48.942Z,37.47
2018-04-22T05:59:15.102Z,36.17
2018-04-22T06:01:42.022Z,34.50
2018-04-22T06:04:08.188Z,35.80
2018-04-22T06:06:35.089Z,34.70
2018-04-22T06:09:01.259Z,34.53
2018-04-22T06:11:28.168Z,33.97
2018-04-22T06:13:54.342Z,33.77
2018-04-22T06:16:21.272Z,33.17
2018-04-22T06:18:48.178Z,33.80
2018-04-22T06:21:14.339Z,31.27
2018-04-22T06:23:41.286Z,34.50
2018-04-22T06:26:08.199Z,33.87
2018-04-22T06:28:34.398Z,32.17
2018-04-22T06:31:00.585Z,32.40
2018-04-22T06:33:27.498Z,32.10
2018-04-22T06:35:53.661Z,31.97
2018-04-22T06:38:20.573Z,33.50
2018-04-22T06:40:46.750Z,29.83
2018-04-22T06:43:12.929Z,31.90
2018-04-22T06:45:39.106Z,31.43
2018-04-22T06:48:05.273Z,29.80
2018-04-22T06:50:31.442Z,30.20
2018-04-22T06:52:58.349Z,32.70
2018-04-22T06:55:24.526Z,31.90
2018-04-22T06:57:51.437Z,31.73
2018-04-22T07:00:17.605Z,31.30
2018-04-22T07:02:43.783Z,31.60
2018-04-22T07:05:09.997Z,29.87
2018-04-22T07:07:36.177Z,28.93
2018-04-22T07:10:03.097Z,30.93
2018-04-22T07:12:29.285Z,29.53
2018-04-22T07:14:55.544Z,28.80
2018-04-22T07:17:21.722Z,31.30
2018-04-22T07:19:47.965Z,30.13
2018-04-22T07:22:14.139Z,29.57
2018-04-22T07:24:40.323Z,27.80
2018-04-22T07:27:06.526Z,27.70
2018-04-22T07:29:33.458Z,28.00
2018-04-22T07:32:00.494Z,28.23
2018-04-22T07:34:27.260Z,27.50
2018-04-22T07:36:53.479Z,27.67
2018-04-22T07:39:20.494Z,30.00
2018-04-22T07:41:46.713Z,29.63
2018-04-22T07:44:12.970Z,28.40
2018-04-22T07:46:39.961Z,27.70
2018-04-22T07:49:06.161Z,28.63
2018-04-22T07:51:33.118Z,28.93
2018-04-22T07:53:59.368Z,28.27
2018-04-22T07:56:25.560Z,28.43
2018-04-22T07:58:52.538Z,27.37
2018-04-22T08:01:18.738Z,27.10
2018-04-22T08:03:45.679Z,26.13
2018-04-22T08:06:12.658Z,27.20
2018-04-22T08:08:38.892Z,28.47
2018-04-22T08:11:05.094Z,25.23
2018-04-22T08:13:32.055Z,25.20
2018-04-22T08:15:58.274Z,24.37
2018-04-22T08:18:24.466Z,24.57
2018-04-22T08:20:51.095Z,27.40
2018-04-22T08:23:17.239Z,25.50
2018-04-22T08:25:43.417Z,27.13
2018-04-22T08:28:09.595Z,25.00
2018-04-22T08:30:35.773Z,24.70
2018-04-22T08:33:01.955Z,26.23
2018-04-22T08:35:28.138Z,23.97
2018-04-22T08:37:54.342Z,24.17
2018-04-22T08:40:20.538Z,22.60
2018-04-22T08:42:46.751Z,23.63
2018-04-22T08:45:12.947Z,25.63
2018-04-22T08:47:39.157Z,23.80
2018-04-22T08:50:05.345Z,22.17
2018-04-22T08:52:31.526Z,24.00
2018-04-22T08:54:57.686Z,20.93
2018-04-22T08:57:23.886Z,21.37
2018-04-22T08:59:50.078Z,20.93
2018-04-22T09:02:17.007Z,22.73
2018-04-22T09:04:43.181Z,22.13
2018-04-22T09:07:10.098Z,23.17
2018-04-22T09:09:37.018Z,22.43
2018-04-22T09:12:03.262Z,21.80
2018-04-22T09:14:30.222Z,22.77
2018-04-22T09:16:57.134Z,22.47
2018-04-22T09:19:23.353Z,21.93
2018-04-22T09:21:49.533Z,19.83
2018-04-22T09:24:15.718Z,21.40
2018-04-22T09:26:41.890Z,21.13
2018-04-22T09:29:08.118Z,21.10
2018-04-22T09:31:34.312Z,21.70
2018-04-22T09:34:00.523Z,20.87
2018-04-22T09:36:26.734Z,21.87
2018-04-22T09:38:53.010Z,20.10
2018-04-22T09:43:56.168Z,17.90
2018-04-22T09:46:22.361Z,19.33
2018-04-22T09:48:49.275Z,18.43
2018-04-22T09:51:15.463Z,16.93
2018-04-22T09:53:41.653Z,18.47
2018-04-22T09:56:08.614Z,18.00
2018-04-22T09:58:34.967Z,17.63
2018-04-22T10:01:01.274Z,16.33
2018-04-22T10:03:30.305Z,16.40
2018-04-22T10:06:17.321Z,17.27
2018-04-22T10:08:43.499Z,16.80
2018-04-22T10:13:43.323Z,16.47
2018-04-22T10:16:10.273Z,16.40
2018-04-22T10:18:37.190Z,14.93
2018-04-22T10:21:05.374Z,15.37
2018-04-22T10:23:45.584Z,15.90
2018-04-22T10:29:05.121Z,14.37
2018-04-22T10:31:31.313Z,14.17
2018-04-22T10:33:57.538Z,14.70
2018-04-22T10:36:23.731Z,13.80
2018-04-22T10:38:52.062Z,14.67
2018-04-22T10:41:18.256Z,14.83
2018-04-22T17:25:26.784Z,5.53
2018-04-22T17:27:52.557Z,5.33
2018-04-22T17:30:18.341Z,6.10
2018-04-22T17:32:44.101Z,5.00
2018-04-22T18:13:01.751Z,6.68
2018-04-22T18:15:27.545Z,7.33
2018-04-22T18:17:53.710Z,7.10
2018-04-22T18:20:23.313Z,7.30
2018-04-22T18:22:49.093Z,7.27
2018-04-22T18:25:15.345Z,7.97
2018-04-22T18:27:41.306Z,7.10
2018-04-22T18:30:07.143Z,8.03
2018-04-22T18:32:33.380Z,8.10
2018-04-22T18:35:01.959Z,6.83
2018-04-22T18:37:29.949Z,7.93
2018-04-22T18:39:56.144Z,7.40
2018-04-22T18:42:22.288Z,8.40
2018-04-22T18:44:50.043Z,7.60
2018-04-22T18:47:15.853Z,7.07
2018-04-22T18:49:41.870Z,7.97
2018-04-22T18:52:07.880Z,7.37
2018-04-22T18:54:33.661Z,8.00
2018-04-22T18:56:59.437Z,7.73
2018-04-22T18:59:25.236Z,7.90
2018-04-22T19:01:51.012Z,7.93
2018-04-22T19:04:16.789Z,8.50
2018-04-22T19:06:42.585Z,7.97
2018-04-22T19:09:08.380Z,7.50
2018-04-22T19:11:34.160Z,7.80
2018-04-22T19:13:59.921Z,8.60
2018-04-22T19:16:25.677Z,8.10
2018-04-22T19:18:51.456Z,7.93
2018-04-22T19:21:17.217Z,8.00
2018-04-22T19:23:42.989Z,8.60
2018-04-22T19:26:08.749Z,8.00
2018-04-22T19:28:34.529Z,7.10
2018-04-22T19:31:00.292Z,7.97
2018-04-22T19:33:26.062Z,9.00
2018-04-22T19:35:51.833Z,9.40
2018-04-22T19:38:18.556Z,8.30
2018-04-22T19:40:44.323Z,9.23
2018-04-22T19:43:10.110Z,8.80
2018-04-22T19:45:35.873Z,9.13
2018-04-22T19:48:01.681Z,9.13
2018-04-22T19:50:27.458Z,9.10
2018-04-22T19:52:53.225Z,9.10
2018-04-22T19:55:19.034Z,7.60
2018-04-22T19:57:44.830Z,8.47
2018-04-22T20:00:10.609Z,8.90
2018-04-22T20:02:36.777Z,10.30
2018-04-22T20:05:02.549Z,9.30
2018-04-22T20:07:28.313Z,9.50
2018-04-22T20:09:54.096Z,10.07
2018-04-22T20:12:19.869Z,9.77
2018-04-22T20:14:45.669Z,8.93
2018-04-22T20:17:11.529Z,9.50
2018-04-22T20:19:37.305Z,10.10
2018-04-22T20:22:03.111Z,9.27
2018-04-22T20:24:28.943Z,10.10
2018-04-22T20:26:54.707Z,9.80
2018-04-22T20:29:21.389Z,9.13
2018-04-22T20:31:47.170Z,10.00
2018-04-22T20:34:12.938Z,9.30
2018-04-22T20:36:38.757Z,9.80
2018-04-22T20:39:04.635Z,9.40
2018-04-22T20:41:30.414Z,9.63
2018-04-22T20:43:56.211Z,10.03
2018-04-22T20:46:22.044Z,9.60
2018-04-22T20:48:47.813Z,9.40
2018-04-22T20:51:13.611Z,9.30
2018-04-22T20:53:39.396Z,10.93
2018-04-22T20:56:05.192Z,8.97
2018-04-22T20:58:30.969Z,9.13
2018-04-22T21:00:56.801Z,10.30
2018-04-22T21:03:22.648Z,10.17
2018-04-22T21:05:48.546Z,9.87
2018-04-22T21:08:14.437Z,10.23
2018-04-22T21:10:40.245Z,10.80
2018-04-22T21:13:06.025Z,10.97
2018-04-22T21:15:32.402Z,9.87
2018-04-22T21:17:58.193Z,9.00
2018-04-22T21:20:24.006Z,9.43
2018-04-22T21:22:49.799Z,10.40
2018-04-22T21:25:15.584Z,9.53
2018-04-22T21:27:41.407Z,9.53
2018-04-22T21:30:07.179Z,9.67
2018-04-22T21:32:32.983Z,10.03
2018-04-22T21:34:58.769Z,9.60
2018-04-22T21:37:24.591Z,9.30
2018-04-22T21:39:50.393Z,9.57
2018-04-22T21:42:16.198Z,9.90
2018-04-22T21:44:41.973Z,10.37
2018-04-22T21:47:08.344Z,9.90
2018-04-22T21:49:34.129Z,10.10
2018-04-22T21:51:59.932Z,9.23
2018-04-22T21:54:25.711Z,10.03
2018-04-22T21:56:51.491Z,11.10
2018-04-22T21:59:17.294Z,9.10
2018-04-22T22:01:43.122Z,9.60
2018-04-22T22:04:08.893Z,10.33
2018-04-22T22:06:34.669Z,12.57
2018-04-22T22:09:00.449Z,12.47
2018-04-22T22:11:26.240Z,11.33
2018-04-22T22:13:52.486Z,10.40
2018-04-22T22:16:18.282Z,9.80
2018-04-22T22:18:44.057Z,8.57
2018-04-22T22:21:09.847Z,9.60
2018-04-22T22:23:35.627Z,8.73
2018-04-22T22:26:01.414Z,10.37
2018-04-22T22:28:27.185Z,9.70
2018-04-22T22:30:52.977Z,10.37
2018-04-22T22:33:18.774Z,9.43
2018-04-22T22:35:44.537Z,9.83
2018-04-22T22:38:13.177Z,9.83
2018-04-22T22:40:42.673Z,9.30
2018-04-22T22:43:12.245Z,9.70
2018-04-22T22:45:39.070Z,9.77
2018-04-22T22:48:06.764Z,9.13
2018-04-22T22:50:32.557Z,9.03
2018-04-22T22:52:58.329Z,9.50
2018-04-22T22:55:24.106Z,10.20
2018-04-22T22:57:49.893Z,10.30
2018-04-22T23:00:15.699Z,9.57
2018-04-22T23:02:42.185Z,9.90
2018-04-22T23:05:07.949Z,10.00
2018-04-22T23:07:33.717Z,10.10
2018-04-22T23:09:59.487Z,10.10
2018-04-22T23:12:25.245Z,9.80
2018-04-22T23:14:51.021Z,9.50
2018-04-22T23:17:16.795Z,10.90
2018-04-22T23:19:42.618Z,9.80
2018-04-22T23:22:10.049Z,10.10
2018-04-22T23:24:35.855Z,10.47
2018-04-22T23:27:01.649Z,10.90
2018-04-22T23:29:27.417Z,10.73
2018-04-22T23:31:53.180Z,10.50
2018-04-22T23:34:18.960Z,10.90
2018-04-22T23:36:44.743Z,11.00
2018-04-22T23:39:11.096Z,10.30
2018-04-22T23:41:36.979Z,10.33
2018-04-22T23:44:02.743Z,11.00
2018-04-22T23:46:28.517Z,10.13
2018-04-22T23:48:54.281Z,10.60
2018-04-22T23:51:20.060Z,10.57
2018-04-22T23:53:45.867Z,11.70
2018-04-22T23:56:11.653Z,10.23
2018-04-22T23:58:37.440Z,11.47
